sensor_id;sensor_type;location;lat;lon;timestamp;temperature;humidity
2174;DHT22;1093;51.424;11.764;2023-03-23T00:02:14;11.90;1.40
2174;DHT22;1093;51.424;11.764;2023-03-23T00:04:41;11.90;1.40
2174;DHT22;1093;51.424;11.764;2023-03-23T00:07:10;12.00;1.40
2174;DHT22;1093;51.424;11.764;2023-03-23T00:09:38;12.10;1.40
2174;DHT22;1093;51.424;11.764;2023-03-23T00:12:06;12.20;1.40
2174;DHT22;1093;51.424;11.764;2023-03-23T00:14:33;12.20;1.40
2174;DHT22;1093;51.424;11.764;2023-03-23T00:17:07;12.30;1.40
2174;DHT22;1093;51.424;11.764;2023-03-23T00:19:35;12.30;1.40
2174;DHT22;1093;51.424;11.764;2023-03-23T00:22:13;12.40;1.40
2174;DHT22;1093;51.424;11.764;2023-03-23T00:24:40;12.40;1.40
2174;DHT22;1093;51.424;11.764;2023-03-23T00:27:07;12.40;1.40
2174;DHT22;1093;51.424;11.764;2023-03-23T00:29:34;12.40;1.40
2174;DHT22;1093;51.424;11.764;2023-03-23T00:32:01;12.40;1.40
2174;DHT22;1093;51.424;11.764;2023-03-23T00:34:28;12.50;1.40
2174;DHT22;1093;51.424;11.764;2023-03-23T00:36:57;12.50;1.40
2174;DHT22;1093;51.424;11.764;2023-03-23T00:39:27;12.50;1.40
2174;DHT22;1093;51.424;11.764;2023-03-23T00:41:55;12.50;1.40
2174;DHT22;1093;51.424;11.764;2023-03-23T00:44:26;12.40;1.40
2174;DHT22;1093;51.424;11.764;2023-03-23T00:46:54;12.40;1.40
2174;DHT22;1093;51.424;11.764;2023-03-23T00:49:23;12.40;1.40
2174;DHT22;1093;51.424;11.764;2023-03-23T00:51:51;12.40;1.40
2174;DHT22;1093;51.424;11.764;2023-03-23T00:54:18;12.40;1.40
2174;DHT22;1093;51.424;11.764;2023-03-23T00:56:46;12.40;1.40
2174;DHT22;1093;51.424;11.764;2023-03-23T00:59:13;12.50;1.40
2174;DHT22;1093;51.424;11.764;2023-03-23T01:01:40;12.50;1.40
2174;DHT22;1093;51.424;11.764;2023-03-23T01:04:07;12.50;1.40
2174;DHT22;1093;51.424;11.764;2023-03-23T01:06:35;12.50;1.40
2174;DHT22;1093;51.424;11.764;2023-03-23T01:09:05;12.50;1.40
2174;DHT22;1093;51.424;11.764;2023-03-23T01:11:32;12.50;1.40
2174;DHT22;1093;51.424;11.764;2023-03-23T01:14:00;12.50;1.40
2174;DHT22;1093;51.424;11.764;2023-03-23T01:16:27;12.50;1.40
2174;DHT22;1093;51.424;11.764;2023-03-23T01:19:09;12.60;1.40
2174;DHT22;1093;51.424;11.764;2023-03-23T01:21:36;12.70;1.40
2174;DHT22;1093;51.424;11.764;2023-03-23T01:24:04;12.70;1.40
2174;DHT22;1093;51.424;11.764;2023-03-23T01:26:31;12.80;1.40
2174;DHT22;1093;51.424;11.764;2023-03-23T01:28:59;12.90;1.40
2174;DHT22;1093;51.424;11.764;2023-03-23T01:31:26;12.90;1.40
2174;DHT22;1093;51.424;11.764;2023-03-23T01:33:53;12.90;1.40
2174;DHT22;1093;51.424;11.764;2023-03-23T01:36:22;13.00;1.40
2174;DHT22;1093;51.424;11.764;2023-03-23T01:38:50;13.10;1.40
2174;DHT22;1093;51.424;11.764;2023-03-23T01:41:18;13.20;1.40
2174;DHT22;1093;51.424;11.764;2023-03-23T01:43:55;13.20;1.40
2174;DHT22;1093;51.424;11.764;2023-03-23T01:46:25;13.20;1.40
2174;DHT22;1093;51.424;11.764;2023-03-23T01:48:52;13.30;1.40
2174;DHT22;1093;51.424;11.764;2023-03-23T01:51:20;13.30;1.40
2174;DHT22;1093;51.424;11.764;2023-03-23T01:53:50;13.30;1.40
2174;DHT22;1093;51.424;11.764;2023-03-23T01:56:22;13.30;1.40
2174;DHT22;1093;51.424;11.764;2023-03-23T01:58:52;13.30;1.40
2174;DHT22;1093;51.424;11.764;2023-03-23T02:01:19;13.30;1.40
2174;DHT22;1093;51.424;11.764;2023-03-23T02:03:52;13.30;1.40
2174;DHT22;1093;51.424;11.764;2023-03-23T02:06:21;13.20;1.40
2174;DHT22;1093;51.424;11.764;2023-03-23T02:08:49;13.20;1.40
2174;DHT22;1093;51.424;11.764;2023-03-23T02:11:18;13.10;1.40
2174;DHT22;1093;51.424;11.764;2023-03-23T02:13:47;13.10;1.40
2174;DHT22;1093;51.424;11.764;2023-03-23T02:16:20;13.00;1.40
2174;DHT22;1093;51.424;11.764;2023-03-23T02:19:07;13.00;1.40
2174;DHT22;1093;51.424;11.764;2023-03-23T02:22:12;13.00;1.40
2174;DHT22;1093;51.424;11.764;2023-03-23T02:25:20;12.90;1.40
2174;DHT22;1093;51.424;11.764;2023-03-23T02:28:12;13.00;1.40
2174;DHT22;1093;51.424;11.764;2023-03-23T02:30:52;13.00;1.40
2174;DHT22;1093;51.424;11.764;2023-03-23T02:33:51;13.00;1.40
2174;DHT22;1093;51.424;11.764;2023-03-23T02:36:23;12.90;1.40
2174;DHT22;1093;51.424;11.764;2023-03-23T02:38:57;12.90;1.40
2174;DHT22;1093;51.424;11.764;2023-03-23T02:41:30;13.00;1.40
2174;DHT22;1093;51.424;11.764;2023-03-23T02:43:58;13.00;1.40
2174;DHT22;1093;51.424;11.764;2023-03-23T02:46:25;13.00;1.40
2174;DHT22;1093;51.424;11.764;2023-03-23T02:48:55;13.00;1.40
2174;DHT22;1093;51.424;11.764;2023-03-23T02:51:24;13.00;1.40
2174;DHT22;1093;51.424;11.764;2023-03-23T02:53:53;13.10;1.40
2174;DHT22;1093;51.424;11.764;2023-03-23T02:56:22;13.00;1.40
2174;DHT22;1093;51.424;11.764;2023-03-23T02:58:50;13.10;1.40
2174;DHT22;1093;51.424;11.764;2023-03-23T03:04:20;13.10;1.40
2174;DHT22;1093;51.424;11.764;2023-03-23T03:06:56;13.10;1.40
2174;DHT22;1093;51.424;11.764;2023-03-23T03:09:33;13.10;1.40
2174;DHT22;1093;51.424;11.764;2023-03-23T03:12:08;13.10;1.40
2174;DHT22;1093;51.424;11.764;2023-03-23T03:14:39;13.10;1.40
2174;DHT22;1093;51.424;11.764;2023-03-23T03:17:13;13.10;1.40
2174;DHT22;1093;51.424;11.764;2023-03-23T03:19:47;13.10;1.40
2174;DHT22;1093;51.424;11.764;2023-03-23T03:22:16;13.10;1.40
2174;DHT22;1093;51.424;11.764;2023-03-23T03:24:46;13.10;1.40
2174;DHT22;1093;51.424;11.764;2023-03-23T03:27:15;13.20;1.40
2174;DHT22;1093;51.424;11.764;2023-03-23T03:29:45;13.20;1.40
2174;DHT22;1093;51.424;11.764;2023-03-23T03:32:16;13.20;1.40
2174;DHT22;1093;51.424;11.764;2023-03-23T03:34:45;13.20;1.40
2174;DHT22;1093;51.424;11.764;2023-03-23T03:37:13;13.20;1.40
2174;DHT22;1093;51.424;11.764;2023-03-23T03:39:41;13.10;1.40
2174;DHT22;1093;51.424;11.764;2023-03-23T03:42:08;13.10;1.40
2174;DHT22;1093;51.424;11.764;2023-03-23T03:44:35;13.10;1.40
2174;DHT22;1093;51.424;11.764;2023-03-23T03:47:02;13.10;1.40
2174;DHT22;1093;51.424;11.764;2023-03-23T03:49:28;13.10;1.40
2174;DHT22;1093;51.424;11.764;2023-03-23T03:51:56;13.10;1.40
2174;DHT22;1093;51.424;11.764;2023-03-23T03:54:23;13.10;1.40
2174;DHT22;1093;51.424;11.764;2023-03-23T03:56:50;13.10;1.40
2174;DHT22;1093;51.424;11.764;2023-03-23T03:59:17;13.00;1.40
2174;DHT22;1093;51.424;11.764;2023-03-23T04:01:44;12.90;1.40
2174;DHT22;1093;51.424;11.764;2023-03-23T04:04:10;12.90;1.40
2174;DHT22;1093;51.424;11.764;2023-03-23T04:06:37;12.80;1.40
2174;DHT22;1093;51.424;11.764;2023-03-23T04:09:06;12.70;1.40
2174;DHT22;1093;51.424;11.764;2023-03-23T04:11:33;12.80;1.40
2174;DHT22;1093;51.424;11.764;2023-03-23T04:14:00;12.80;1.40
2174;DHT22;1093;51.424;11.764;2023-03-23T04:16:28;12.80;1.40
2174;DHT22;1093;51.424;11.764;2023-03-23T04:18:55;12.90;1.40
2174;DHT22;1093;51.424;11.764;2023-03-23T04:21:22;12.90;1.40
2174;DHT22;1093;51.424;11.764;2023-03-23T04:23:49;13.00;1.40
2174;DHT22;1093;51.424;11.764;2023-03-23T04:26:17;13.00;1.40
2174;DHT22;1093;51.424;11.764;2023-03-23T04:28:44;13.00;1.40
2174;DHT22;1093;51.424;11.764;2023-03-23T04:31:11;13.10;1.40
2174;DHT22;1093;51.424;11.764;2023-03-23T04:33:38;13.10;1.40
2174;DHT22;1093;51.424;11.764;2023-03-23T04:36:06;13.20;1.40
2174;DHT22;1093;51.424;11.764;2023-03-23T04:38:33;13.20;1.40
2174;DHT22;1093;51.424;11.764;2023-03-23T04:41:00;13.20;1.40
2174;DHT22;1093;51.424;11.764;2023-03-23T04:43:29;13.20;1.40
2174;DHT22;1093;51.424;11.764;2023-03-23T04:45:56;13.10;1.40
2174;DHT22;1093;51.424;11.764;2023-03-23T04:48:24;13.20;1.40
2174;DHT22;1093;51.424;11.764;2023-03-23T04:50:51;13.20;1.40
2174;DHT22;1093;51.424;11.764;2023-03-23T04:53:18;13.30;1.40
2174;DHT22;1093;51.424;11.764;2023-03-23T04:55:46;13.40;1.40
2174;DHT22;1093;51.424;11.764;2023-03-23T04:58:15;13.40;1.40
2174;DHT22;1093;51.424;11.764;2023-03-23T05:00:43;13.40;1.40
2174;DHT22;1093;51.424;11.764;2023-03-23T05:03:14;13.30;1.40
2174;DHT22;1093;51.424;11.764;2023-03-23T05:05:41;13.30;1.40
2174;DHT22;1093;51.424;11.764;2023-03-23T05:08:08;13.30;1.40
2174;DHT22;1093;51.424;11.764;2023-03-23T05:10:35;13.20;1.40
2174;DHT22;1093;51.424;11.764;2023-03-23T05:13:02;13.20;1.40
2174;DHT22;1093;51.424;11.764;2023-03-23T05:15:29;13.10;1.40
2174;DHT22;1093;51.424;11.764;2023-03-23T05:17:57;13.10;1.40
2174;DHT22;1093;51.424;11.764;2023-03-23T05:20:23;13.10;1.40
2174;DHT22;1093;51.424;11.764;2023-03-23T05:22:50;13.10;1.40
2174;DHT22;1093;51.424;11.764;2023-03-23T05:25:18;13.00;1.40
2174;DHT22;1093;51.424;11.764;2023-03-23T05:27:45;13.00;1.40
2174;DHT22;1093;51.424;11.764;2023-03-23T05:30:15;13.00;1.40
2174;DHT22;1093;51.424;11.764;2023-03-23T05:32:42;13.00;1.40
2174;DHT22;1093;51.424;11.764;2023-03-23T05:35:12;13.10;1.40
2174;DHT22;1093;51.424;11.764;2023-03-23T05:37:38;13.00;1.40
2174;DHT22;1093;51.424;11.764;2023-03-23T05:40:06;13.00;1.40
2174;DHT22;1093;51.424;11.764;2023-03-23T05:42:34;13.00;1.40
2174;DHT22;1093;51.424;11.764;2023-03-23T05:45:01;13.00;1.40
2174;DHT22;1093;51.424;11.764;2023-03-23T05:47:28;12.90;1.40
2174;DHT22;1093;51.424;11.764;2023-03-23T05:49:55;12.90;1.40
2174;DHT22;1093;51.424;11.764;2023-03-23T05:52:24;12.90;1.40
2174;DHT22;1093;51.424;11.764;2023-03-23T05:54:51;12.90;1.40
2174;DHT22;1093;51.424;11.764;2023-03-23T05:57:19;12.90;1.40
2174;DHT22;1093;51.424;11.764;2023-03-23T05:59:47;13.00;1.40
2174;DHT22;1093;51.424;11.764;2023-03-23T06:02:14;12.90;1.40
2174;DHT22;1093;51.424;11.764;2023-03-23T06:04:41;12.90;1.40
2174;DHT22;1093;51.424;11.764;2023-03-23T06:07:08;13.00;1.40
2174;DHT22;1093;51.424;11.764;2023-03-23T06:09:39;13.00;1.40
2174;DHT22;1093;51.424;11.764;2023-03-23T06:12:07;13.00;1.40
2174;DHT22;1093;51.424;11.764;2023-03-23T06:14:34;13.00;1.40
2174;DHT22;1093;51.424;11.764;2023-03-23T06:17:01;13.00;1.40
2174;DHT22;1093;51.424;11.764;2023-03-23T06:19:28;13.00;1.40
2174;DHT22;1093;51.424;11.764;2023-03-23T06:21:55;13.00;1.40
2174;DHT22;1093;51.424;11.764;2023-03-23T06:24:22;13.00;1.40
2174;DHT22;1093;51.424;11.764;2023-03-23T06:26:50;12.90;1.40
2174;DHT22;1093;51.424;11.764;2023-03-23T06:29:19;12.90;1.40
2174;DHT22;1093;51.424;11.764;2023-03-23T06:31:48;12.80;1.40
2174;DHT22;1093;51.424;11.764;2023-03-23T06:34:15;12.80;1.40
2174;DHT22;1093;51.424;11.764;2023-03-23T06:36:42;12.80;1.40
2174;DHT22;1093;51.424;11.764;2023-03-23T06:39:10;12.70;1.40
2174;DHT22;1093;51.424;11.764;2023-03-23T06:41:38;12.70;1.40
2174;DHT22;1093;51.424;11.764;2023-03-23T06:44:06;12.70;1.40
2174;DHT22;1093;51.424;11.764;2023-03-23T06:46:34;12.70;1.40
2174;DHT22;1093;51.424;11.764;2023-03-23T06:49:01;12.70;1.40
2174;DHT22;1093;51.424;11.764;2023-03-23T06:51:27;12.70;1.40
2174;DHT22;1093;51.424;11.764;2023-03-23T06:53:54;12.60;1.40
2174;DHT22;1093;51.424;11.764;2023-03-23T06:56:21;12.60;1.40
2174;DHT22;1093;51.424;11.764;2023-03-23T06:58:47;12.60;1.40
2174;DHT22;1093;51.424;11.764;2023-03-23T07:01:15;12.60;1.40
2174;DHT22;1093;51.424;11.764;2023-03-23T07:03:42;12.60;1.40
2174;DHT22;1093;51.424;11.764;2023-03-23T07:06:10;12.60;1.40
2174;DHT22;1093;51.424;11.764;2023-03-23T07:08:37;12.60;1.40
2174;DHT22;1093;51.424;11.764;2023-03-23T07:11:04;12.60;1.40
2174;DHT22;1093;51.424;11.764;2023-03-23T07:13:32;12.60;1.40
2174;DHT22;1093;51.424;11.764;2023-03-23T07:15:59;12.50;1.40
2174;DHT22;1093;51.424;11.764;2023-03-23T07:18:27;12.60;1.40
2174;DHT22;1093;51.424;11.764;2023-03-23T07:20:54;12.60;1.40
2174;DHT22;1093;51.424;11.764;2023-03-23T07:23:20;12.60;1.40
2174;DHT22;1093;51.424;11.764;2023-03-23T07:25:47;12.50;1.40
2174;DHT22;1093;51.424;11.764;2023-03-23T07:28:14;12.50;1.40
2174;DHT22;1093;51.424;11.764;2023-03-23T07:30:41;12.50;1.40
2174;DHT22;1093;51.424;11.764;2023-03-23T07:33:09;12.50;1.40
2174;DHT22;1093;51.424;11.764;2023-03-23T07:35:37;12.50;1.40
2174;DHT22;1093;51.424;11.764;2023-03-23T07:38:05;12.50;1.40
2174;DHT22;1093;51.424;11.764;2023-03-23T07:40:33;12.50;1.40
2174;DHT22;1093;51.424;11.764;2023-03-23T07:43:01;12.60;1.40
2174;DHT22;1093;51.424;11.764;2023-03-23T07:45:28;12.70;1.40
2174;DHT22;1093;51.424;11.764;2023-03-23T07:47:55;12.80;1.40
2174;DHT22;1093;51.424;11.764;2023-03-23T07:50:22;12.80;1.40
2174;DHT22;1093;51.424;11.764;2023-03-23T07:52:53;12.80;1.40
2174;DHT22;1093;51.424;11.764;2023-03-23T07:55:20;12.80;1.40
2174;DHT22;1093;51.424;11.764;2023-03-23T07:57:48;12.80;1.40
2174;DHT22;1093;51.424;11.764;2023-03-23T08:00:16;12.80;1.40
2174;DHT22;1093;51.424;11.764;2023-03-23T08:02:44;12.90;1.40
2174;DHT22;1093;51.424;11.764;2023-03-23T08:05:11;12.90;1.40
2174;DHT22;1093;51.424;11.764;2023-03-23T08:07:39;12.90;1.40
2174;DHT22;1093;51.424;11.764;2023-03-23T08:10:10;12.90;1.40
2174;DHT22;1093;51.424;11.764;2023-03-23T08:12:38;13.00;1.40
2174;DHT22;1093;51.424;11.764;2023-03-23T08:15:06;13.10;1.40
2174;DHT22;1093;51.424;11.764;2023-03-23T08:17:33;13.20;1.40
2174;DHT22;1093;51.424;11.764;2023-03-23T08:20:01;13.30;1.40
2174;DHT22;1093;51.424;11.764;2023-03-23T08:22:33;13.40;1.40
2174;DHT22;1093;51.424;11.764;2023-03-23T08:25:01;13.50;1.40
2174;DHT22;1093;51.424;11.764;2023-03-23T08:27:30;13.70;1.40
2174;DHT22;1093;51.424;11.764;2023-03-23T08:29:57;13.80;1.40
2174;DHT22;1093;51.424;11.764;2023-03-23T08:32:24;13.90;1.40
2174;DHT22;1093;51.424;11.764;2023-03-23T08:34:51;14.00;1.40
2174;DHT22;1093;51.424;11.764;2023-03-23T08:37:18;14.20;1.40
2174;DHT22;1093;51.424;11.764;2023-03-23T08:39:45;14.30;1.40
2174;DHT22;1093;51.424;11.764;2023-03-23T08:42:11;14.40;1.40
2174;DHT22;1093;51.424;11.764;2023-03-23T08:44:40;14.50;1.40
2174;DHT22;1093;51.424;11.764;2023-03-23T08:47:07;14.50;1.40
2174;DHT22;1093;51.424;11.764;2023-03-23T08:49:34;14.50;1.40
2174;DHT22;1093;51.424;11.764;2023-03-23T08:52:02;14.60;1.40
2174;DHT22;1093;51.424;11.764;2023-03-23T08:54:29;14.70;1.40
2174;DHT22;1093;51.424;11.764;2023-03-23T08:56:59;14.70;1.40
2174;DHT22;1093;51.424;11.764;2023-03-23T08:59:27;14.70;1.40
2174;DHT22;1093;51.424;11.764;2023-03-23T09:01:55;14.80;1.40
2174;DHT22;1093;51.424;11.764;2023-03-23T09:04:21;14.80;1.40
2174;DHT22;1093;51.424;11.764;2023-03-23T09:06:48;14.90;1.40
2174;DHT22;1093;51.424;11.764;2023-03-23T09:09:15;14.90;1.40
2174;DHT22;1093;51.424;11.764;2023-03-23T09:11:42;15.00;1.40
2174;DHT22;1093;51.424;11.764;2023-03-23T09:14:10;15.10;1.40
2174;DHT22;1093;51.424;11.764;2023-03-23T09:16:37;15.10;1.40
2174;DHT22;1093;51.424;11.764;2023-03-23T09:19:07;15.20;1.40
2174;DHT22;1093;51.424;11.764;2023-03-23T09:21:35;15.30;1.40
2174;DHT22;1093;51.424;11.764;2023-03-23T09:24:02;15.40;1.40
2174;DHT22;1093;51.424;11.764;2023-03-23T09:26:30;15.50;1.40
2174;DHT22;1093;51.424;11.764;2023-03-23T09:28:57;15.50;1.40
2174;DHT22;1093;51.424;11.764;2023-03-23T09:31:24;15.50;1.40
2174;DHT22;1093;51.424;11.764;2023-03-23T09:33:53;15.60;1.40
2174;DHT22;1093;51.424;11.764;2023-03-23T09:36:23;15.60;1.40
2174;DHT22;1093;51.424;11.764;2023-03-23T09:38:51;15.70;1.40
2174;DHT22;1093;51.424;11.764;2023-03-23T09:41:38;15.70;1.40
2174;DHT22;1093;51.424;11.764;2023-03-23T09:44:17;15.80;1.40
2174;DHT22;1093;51.424;11.764;2023-03-23T09:46:52;15.80;1.40
2174;DHT22;1093;51.424;11.764;2023-03-23T09:49:25;15.80;1.40
2174;DHT22;1093;51.424;11.764;2023-03-23T09:51:56;15.80;1.40
2174;DHT22;1093;51.424;11.764;2023-03-23T09:54:26;15.90;1.40
2174;DHT22;1093;51.424;11.764;2023-03-23T09:56:54;15.90;1.40
2174;DHT22;1093;51.424;11.764;2023-03-23T09:59:26;16.00;1.40
2174;DHT22;1093;51.424;11.764;2023-03-23T10:01:57;16.00;1.40
2174;DHT22;1093;51.424;11.764;2023-03-23T10:04:31;16.10;1.40
2174;DHT22;1093;51.424;11.764;2023-03-23T10:07:09;16.10;1.40
2174;DHT22;1093;51.424;11.764;2023-03-23T10:09:37;16.10;1.40
2174;DHT22;1093;51.424;11.764;2023-03-23T10:12:10;16.20;1.40
2174;DHT22;1093;51.424;11.764;2023-03-23T10:14:49;16.10;1.40
2174;DHT22;1093;51.424;11.764;2023-03-23T10:17:20;16.10;1.40
2174;DHT22;1093;51.424;11.764;2023-03-23T10:19:53;16.20;1.40
2174;DHT22;1093;51.424;11.764;2023-03-23T10:22:29;16.20;1.40
2174;DHT22;1093;51.424;11.764;2023-03-23T10:25:02;16.20;1.40
2174;DHT22;1093;51.424;11.764;2023-03-23T10:27:33;16.30;1.40
2174;DHT22;1093;51.424;11.764;2023-03-23T10:30:10;16.30;1.40
2174;DHT22;1093;51.424;11.764;2023-03-23T10:32:42;16.30;1.40
2174;DHT22;1093;51.424;11.764;2023-03-23T10:35:15;16.30;1.40
2174;DHT22;1093;51.424;11.764;2023-03-23T10:37:48;16.30;1.40
2174;DHT22;1093;51.424;11.764;2023-03-23T10:40:18;16.20;1.40
2174;DHT22;1093;51.424;11.764;2023-03-23T10:42:49;16.20;1.40
2174;DHT22;1093;51.424;11.764;2023-03-23T10:45:19;16.20;1.40
2174;DHT22;1093;51.424;11.764;2023-03-23T10:47:50;16.10;1.40
2174;DHT22;1093;51.424;11.764;2023-03-23T10:50:23;16.10;1.40
2174;DHT22;1093;51.424;11.764;2023-03-23T10:52:54;16.10;1.40
2174;DHT22;1093;51.424;11.764;2023-03-23T10:55:24;16.10;1.40
2174;DHT22;1093;51.424;11.764;2023-03-23T10:58:00;16.10;1.40
2174;DHT22;1093;51.424;11.764;2023-03-23T11:00:28;16.10;1.40
2174;DHT22;1093;51.424;11.764;2023-03-23T11:03:01;16.10;1.40
2174;DHT22;1093;51.424;11.764;2023-03-23T11:05:35;16.10;1.40
2174;DHT22;1093;51.424;11.764;2023-03-23T11:08:11;16.00;1.40
2174;DHT22;1093;51.424;11.764;2023-03-23T11:10:41;16.10;1.40
2174;DHT22;1093;51.424;11.764;2023-03-23T11:13:13;16.10;1.40
2174;DHT22;1093;51.424;11.764;2023-03-23T11:15:42;16.10;1.40
2174;DHT22;1093;51.424;11.764;2023-03-23T11:18:12;16.10;1.40
2174;DHT22;1093;51.424;11.764;2023-03-23T11:20:41;16.10;1.40
2174;DHT22;1093;51.424;11.764;2023-03-23T11:23:18;16.10;1.40
2174;DHT22;1093;51.424;11.764;2023-03-23T11:26:02;16.20;1.40
2174;DHT22;1093;51.424;11.764;2023-03-23T11:28:32;16.20;1.40
2174;DHT22;1093;51.424;11.764;2023-03-23T11:31:03;16.20;1.40
2174;DHT22;1093;51.424;11.764;2023-03-23T11:33:36;16.30;1.40
2174;DHT22;1093;51.424;11.764;2023-03-23T11:36:04;16.20;1.40
2174;DHT22;1093;51.424;11.764;2023-03-23T11:38:33;16.20;1.40
2174;DHT22;1093;51.424;11.764;2023-03-23T11:41:01;16.30;1.40
2174;DHT22;1093;51.424;11.764;2023-03-23T11:43:27;16.30;1.40
2174;DHT22;1093;51.424;11.764;2023-03-23T11:46:01;16.20;1.40
2174;DHT22;1093;51.424;11.764;2023-03-23T11:48:35;16.20;1.40
2174;DHT22;1093;51.424;11.764;2023-03-23T11:51:07;16.20;1.40
2174;DHT22;1093;51.424;11.764;2023-03-23T11:53:45;16.20;1.40
2174;DHT22;1093;51.424;11.764;2023-03-23T11:56:19;16.30;1.40
2174;DHT22;1093;51.424;11.764;2023-03-23T11:58:49;16.40;1.40
2174;DHT22;1093;51.424;11.764;2023-03-23T12:01:24;16.50;1.40
2174;DHT22;1093;51.424;11.764;2023-03-23T12:06:46;16.70;1.40
2174;DHT22;1093;51.424;11.764;2023-03-23T12:09:25;16.70;1.40
2174;DHT22;1093;51.424;11.764;2023-03-23T12:12:02;16.80;1.40
2174;DHT22;1093;51.424;11.764;2023-03-23T12:14:36;16.90;1.40
2174;DHT22;1093;51.424;11.764;2023-03-23T12:17:16;16.80;1.40
2174;DHT22;1093;51.424;11.764;2023-03-23T12:19:53;16.90;1.40
2174;DHT22;1093;51.424;11.764;2023-03-23T12:22:31;17.00;1.40
2174;DHT22;1093;51.424;11.764;2023-03-23T12:25:16;17.00;1.40
2174;DHT22;1093;51.424;11.764;2023-03-23T12:27:51;17.10;1.40
2174;DHT22;1093;51.424;11.764;2023-03-23T12:30:32;17.20;1.40
2174;DHT22;1093;51.424;11.764;2023-03-23T12:33:15;17.10;1.40
2174;DHT22;1093;51.424;11.764;2023-03-23T12:35:49;17.10;1.40
2174;DHT22;1093;51.424;11.764;2023-03-23T12:38:29;17.10;1.40
2174;DHT22;1093;51.424;11.764;2023-03-23T12:41:05;17.00;1.40
2174;DHT22;1093;51.424;11.764;2023-03-23T12:43:39;17.00;1.40
2174;DHT22;1093;51.424;11.764;2023-03-23T12:49:10;17.00;1.40
2174;DHT22;1093;51.424;11.764;2023-03-23T12:51:42;16.80;1.40
2174;DHT22;1093;51.424;11.764;2023-03-23T12:54:16;16.80;1.40
2174;DHT22;1093;51.424;11.764;2023-03-23T12:56:52;16.70;1.40
2174;DHT22;1093;51.424;11.764;2023-03-23T12:59:23;16.60;1.40
2174;DHT22;1093;51.424;11.764;2023-03-23T13:01:56;16.60;1.40
2174;DHT22;1093;51.424;11.764;2023-03-23T13:04:29;16.50;1.40
2174;DHT22;1093;51.424;11.764;2023-03-23T13:06:59;16.40;1.40
2174;DHT22;1093;51.424;11.764;2023-03-23T13:09:32;16.40;1.40
2174;DHT22;1093;51.424;11.764;2023-03-23T13:12:04;16.30;1.40
2174;DHT22;1093;51.424;11.764;2023-03-23T13:14:41;16.30;1.40
2174;DHT22;1093;51.424;11.764;2023-03-23T13:17:18;16.40;1.40
2174;DHT22;1093;51.424;11.764;2023-03-23T13:20:01;16.30;1.40
2174;DHT22;1093;51.424;11.764;2023-03-23T13:22:36;16.30;1.40
2174;DHT22;1093;51.424;11.764;2023-03-23T13:25:08;16.30;1.40
2174;DHT22;1093;51.424;11.764;2023-03-23T13:27:41;16.30;1.40
2174;DHT22;1093;51.424;11.764;2023-03-23T13:30:19;16.30;1.40
2174;DHT22;1093;51.424;11.764;2023-03-23T13:32:50;16.20;1.40
2174;DHT22;1093;51.424;11.764;2023-03-23T13:35:18;16.10;1.40
2174;DHT22;1093;51.424;11.764;2023-03-23T13:37:48;16.10;1.40
2174;DHT22;1093;51.424;11.764;2023-03-23T13:40:24;16.10;1.40
2174;DHT22;1093;51.424;11.764;2023-03-23T13:42:57;16.10;1.40
2174;DHT22;1093;51.424;11.764;2023-03-23T13:45:42;16.10;1.40
2174;DHT22;1093;51.424;11.764;2023-03-23T13:48:20;16.10;1.40
2174;DHT22;1093;51.424;11.764;2023-03-23T13:50:51;16.10;1.40
2174;DHT22;1093;51.424;11.764;2023-03-23T13:53:23;16.00;1.40
2174;DHT22;1093;51.424;11.764;2023-03-23T13:56:02;16.00;1.40
2174;DHT22;1093;51.424;11.764;2023-03-23T13:58:31;16.10;1.40
2174;DHT22;1093;51.424;11.764;2023-03-23T14:01:11;16.20;1.40
2174;DHT22;1093;51.424;11.764;2023-03-23T14:03:39;16.20;1.40
2174;DHT22;1093;51.424;11.764;2023-03-23T14:06:12;16.30;1.40
2174;DHT22;1093;51.424;11.764;2023-03-23T14:08:42;16.30;1.40
2174;DHT22;1093;51.424;11.764;2023-03-23T14:11:15;16.30;1.40
2174;DHT22;1093;51.424;11.764;2023-03-23T14:13:48;16.20;1.40
2174;DHT22;1093;51.424;11.764;2023-03-23T14:16:19;16.20;1.40
2174;DHT22;1093;51.424;11.764;2023-03-23T14:18:52;16.10;1.40
2174;DHT22;1093;51.424;11.764;2023-03-23T14:21:36;16.10;1.40
2174;DHT22;1093;51.424;11.764;2023-03-23T14:24:09;16.00;1.40
2174;DHT22;1093;51.424;11.764;2023-03-23T14:26:36;16.00;1.40
2174;DHT22;1093;51.424;11.764;2023-03-23T14:29:05;16.00;1.40
2174;DHT22;1093;51.424;11.764;2023-03-23T14:31:34;15.90;1.40
2174;DHT22;1093;51.424;11.764;2023-03-23T14:34:04;15.90;1.40
2174;DHT22;1093;51.424;11.764;2023-03-23T14:36:34;15.80;1.40
2174;DHT22;1093;51.424;11.764;2023-03-23T14:39:06;15.80;1.40
2174;DHT22;1093;51.424;11.764;2023-03-23T14:41:36;15.80;1.40
2174;DHT22;1093;51.424;11.764;2023-03-23T14:44:05;15.80;1.40
2174;DHT22;1093;51.424;11.764;2023-03-23T14:46:33;15.80;1.40
2174;DHT22;1093;51.424;11.764;2023-03-23T14:49:01;15.80;1.40
2174;DHT22;1093;51.424;11.764;2023-03-23T14:51:28;15.80;1.40
2174;DHT22;1093;51.424;11.764;2023-03-23T14:53:57;15.90;1.40
2174;DHT22;1093;51.424;11.764;2023-03-23T14:56:33;15.80;1.40
2174;DHT22;1093;51.424;11.764;2023-03-23T14:59:04;15.90;1.40
2174;DHT22;1093;51.424;11.764;2023-03-23T15:01:34;15.90;1.40
2174;DHT22;1093;51.424;11.764;2023-03-23T15:04:04;15.90;1.40
2174;DHT22;1093;51.424;11.764;2023-03-23T15:06:34;15.90;1.40
2174;DHT22;1093;51.424;11.764;2023-03-23T15:09:05;15.80;1.40
2174;DHT22;1093;51.424;11.764;2023-03-23T15:11:34;15.90;1.40
2174;DHT22;1093;51.424;11.764;2023-03-23T15:14:08;15.90;1.40
2174;DHT22;1093;51.424;11.764;2023-03-23T15:16:37;15.90;1.40
2174;DHT22;1093;51.424;11.764;2023-03-23T15:19:16;15.90;1.40
2174;DHT22;1093;51.424;11.764;2023-03-23T15:21:48;15.90;1.40
2174;DHT22;1093;51.424;11.764;2023-03-23T15:24:24;15.90;1.40
2174;DHT22;1093;51.424;11.764;2023-03-23T15:26:51;15.90;1.40
2174;DHT22;1093;51.424;11.764;2023-03-23T15:29:19;15.90;1.40
2174;DHT22;1093;51.424;11.764;2023-03-23T15:31:51;15.90;1.40
2174;DHT22;1093;51.424;11.764;2023-03-23T15:34:24;15.90;1.40
2174;DHT22;1093;51.424;11.764;2023-03-23T15:36:55;15.90;1.40
2174;DHT22;1093;51.424;11.764;2023-03-23T15:39:23;16.00;1.40
2174;DHT22;1093;51.424;11.764;2023-03-23T15:41:51;16.00;1.40
2174;DHT22;1093;51.424;11.764;2023-03-23T15:44:30;16.00;1.40
2174;DHT22;1093;51.424;11.764;2023-03-23T15:47:19;16.00;1.40
2174;DHT22;1093;51.424;11.764;2023-03-23T15:49:58;16.00;1.40
2174;DHT22;1093;51.424;11.764;2023-03-23T15:52:25;15.90;1.40
2174;DHT22;1093;51.424;11.764;2023-03-23T15:54:52;15.90;1.40
2174;DHT22;1093;51.424;11.764;2023-03-23T15:57:19;15.90;1.40
2174;DHT22;1093;51.424;11.764;2023-03-23T15:59:45;15.90;1.40
2174;DHT22;1093;51.424;11.764;2023-03-23T16:02:18;15.80;1.40
2174;DHT22;1093;51.424;11.764;2023-03-23T16:04:48;15.80;1.40
2174;DHT22;1093;51.424;11.764;2023-03-23T16:07:22;15.80;1.40
2174;DHT22;1093;51.424;11.764;2023-03-23T16:09:49;15.70;1.40
2174;DHT22;1093;51.424;11.764;2023-03-23T16:12:16;15.70;1.40
2174;DHT22;1093;51.424;11.764;2023-03-23T16:14:43;15.70;1.40
2174;DHT22;1093;51.424;11.764;2023-03-23T16:17:11;15.80;1.40
2174;DHT22;1093;51.424;11.764;2023-03-23T16:19:40;15.70;1.40
2174;DHT22;1093;51.424;11.764;2023-03-23T16:22:08;15.80;1.40
2174;DHT22;1093;51.424;11.764;2023-03-23T16:24:35;15.70;1.40
2174;DHT22;1093;51.424;11.764;2023-03-23T16:27:03;15.70;1.40
2174;DHT22;1093;51.424;11.764;2023-03-23T16:29:30;15.70;1.40
2174;DHT22;1093;51.424;11.764;2023-03-23T16:31:57;15.70;1.40